Aérodrome :
LOGIN :

S'inscrire | Disclaimer

   EN    FR    IT 

 










Légende :    VFR   VFR Marginal   IFR   IFR Intensif   IFR Très Intensif
Visi : 
Plafond : 
>= 8 km
>= 3000ft
5 à 8 km
1000 à 3000 ft
1500m à 5 km
500 à 1000 ft
800 à 1500m
200 à 500 ft
< 800m
< 200 ft
Symboles :   Orages  Brouillard  Fortes neiges  Fortes précipitations  Vent > 20 kt
SIGMETs :   Divers  Orages  Givrage  Turbulence  Onde Orograph.  Cendres Volcan.






- Altitude de l'aérodrome : 202 ft
- Code IATA : LGW


EGKK - London Gatwick

DERNIER METAR :
  • 250550Z 33004KT CAVOK M01/M03 Q1005

METARs EXPIRÉS :
  • 250520Z 32006KT CAVOK M01/M02 Q1005
  • 250450Z 34007KT CAVOK M01/M02 Q1004
  • 250420Z 32007KT CAVOK M01/M02 Q1004
  • 250350Z 32008KT CAVOK M00/M01 Q1003
  • 250320Z 33009KT CAVOK 00/M01 Q1003

TAF TAF EGKK
Valide du 25 à 06h jusqu'au 26 à 12h UTC


250459Z 2506/2612 31006KT CAVOK
PROB30
TEMPO 2506/2510 8000
PROB30 2600/2609 4000 BR



MET'MAP, la Météo Aéronautique d'un coup d'oeil ! - Copyright ORBIFLY Décembre 2007 - Disclaimer

ORBIFLY MET'MAP TEAM :

Programmation & Développement : Alexandra Zaïnal
Sur une idée originale de : Baudouin d'Aumeries
Assistance à la programmation : Marc-Olivier Méhu
Soutien technique & logistique : Manuel Goepfert

Contact : metmap@orbifly.com




SOURCES & CREDITS :

   NOAA